createdAt,value
2019-06-26T00:01:50.515Z,54.10
2019-06-26T00:04:21.161Z,54.10
2019-06-26T00:06:50.713Z,54.20
2019-06-26T00:09:20.332Z,54.80
2019-06-26T00:11:49.894Z,54.20
2019-06-26T00:14:19.520Z,54.20
2019-06-26T00:16:49.063Z,54.20
2019-06-26T00:19:18.814Z,54.20
2019-06-26T00:21:48.382Z,54.20
2019-06-26T00:24:17.991Z,54.20
2019-06-26T00:26:47.706Z,54.20
2019-06-26T00:29:17.307Z,54.30
2019-06-26T00:31:46.962Z,54.20
2019-06-26T00:34:16.570Z,54.20
2019-06-26T00:36:47.592Z,54.30
2019-06-26T00:39:17.286Z,54.30
2019-06-26T00:41:46.894Z,54.20
2019-06-26T00:44:16.564Z,54.20
2019-06-26T00:46:46.896Z,54.20
2019-06-26T00:49:17.542Z,54.30
2019-06-26T00:51:48.179Z,54.30
2019-06-26T00:54:17.768Z,54.20
2019-06-26T00:56:48.436Z,54.20
2019-06-26T00:59:18.034Z,54.30
2019-06-26T01:01:47.656Z,54.20
2019-06-26T01:04:22.318Z,54.20
2019-06-26T01:06:52.901Z,54.20
2019-06-26T01:09:22.469Z,54.20
2019-06-26T01:11:52.075Z,53.70
2019-06-26T01:14:21.658Z,54.20
2019-06-26T01:16:51.242Z,54.20
2019-06-26T01:19:20.825Z,54.30
2019-06-26T01:21:51.442Z,55.00
2019-06-26T01:24:21.019Z,54.30
2019-06-26T01:26:50.605Z,54.30
2019-06-26T01:29:20.274Z,54.40
2019-06-26T01:31:49.958Z,54.30
2019-06-26T01:34:19.489Z,54.30
2019-06-26T01:36:49.098Z,54.20
2019-06-26T01:39:18.766Z,54.30
2019-06-26T01:41:48.342Z,54.20
2019-06-26T01:44:17.956Z,54.30
2019-06-26T01:46:47.543Z,54.40
2019-06-26T01:49:17.154Z,54.40
2019-06-26T01:51:47.736Z,54.30
2019-06-26T01:54:17.311Z,54.40
2019-06-26T01:56:46.909Z,54.30
2019-06-26T01:59:16.517Z,54.40
2019-06-26T02:01:46.125Z,54.50
2019-06-26T02:04:15.881Z,54.40
2019-06-26T02:06:45.582Z,54.30
2019-06-26T02:09:16.522Z,54.40
2019-06-26T02:11:46.092Z,55.00
2019-06-26T02:14:30.078Z,54.40
2019-06-26T02:16:46.981Z,54.40
2019-06-26T02:19:18.157Z,54.40
2019-06-26T02:21:47.798Z,54.40
2019-06-26T02:24:17.371Z,54.40
2019-06-26T02:26:46.957Z,54.40
2019-06-26T02:29:17.313Z,54.50
2019-06-26T02:31:46.875Z,54.40
2019-06-26T02:34:17.074Z,54.50
2019-06-26T02:36:46.609Z,54.50
2019-06-26T02:39:16.211Z,54.40
2019-06-26T02:41:45.826Z,54.30
2019-06-26T02:44:15.370Z,54.30
2019-06-26T02:46:44.936Z,54.40
2019-06-26T02:49:14.541Z,54.40
2019-06-26T02:51:44.218Z,54.40
2019-06-26T02:54:13.838Z,54.40
2019-06-26T02:56:43.711Z,54.40
2019-06-26T02:59:13.271Z,54.40
2019-06-26T03:01:43.099Z,54.40
2019-06-26T03:04:13.907Z,54.50
2019-06-26T03:06:43.494Z,54.40
2019-06-26T03:09:13.088Z,54.50
2019-06-26T03:11:42.656Z,54.30
2019-06-26T03:14:12.314Z,54.40
2019-06-26T03:16:42.622Z,54.40
2019-06-26T03:19:12.266Z,54.30
2019-06-26T03:21:41.863Z,54.40
2019-06-26T03:24:11.441Z,54.50
2019-06-26T03:26:41.064Z,54.40
2019-06-26T03:29:10.686Z,54.50
2019-06-26T03:31:40.274Z,54.50
2019-06-26T03:34:09.847Z,54.50
2019-06-26T03:36:39.413Z,54.50
2019-06-26T03:39:09.062Z,54.60
2019-06-26T03:41:38.647Z,54.70
2019-06-26T03:44:08.270Z,54.70
2019-06-26T03:46:37.885Z,54.60
2019-06-26T03:49:07.484Z,54.80
2019-06-26T03:51:37.065Z,54.80
2019-06-26T03:54:06.614Z,54.80
2019-06-26T03:56:36.257Z,54.90
2019-06-26T03:59:05.869Z,55.20
2019-06-26T04:01:35.435Z,54.90
2019-06-26T04:04:05.010Z,54.50
2019-06-26T04:06:35.493Z,54.80
2019-06-26T04:09:06.287Z,54.30
2019-06-26T04:11:35.930Z,54.30
2019-06-26T04:14:05.618Z,54.20
2019-06-26T04:16:35.288Z,54.40
2019-06-26T04:19:06.112Z,54.20
2019-06-26T04:21:35.704Z,54.30
2019-06-26T04:24:06.468Z,54.20
2019-06-26T04:26:36.102Z,54.20
2019-06-26T04:29:05.753Z,54.10
2019-06-26T04:31:35.329Z,54.60
2019-06-26T04:34:04.890Z,54.10
2019-06-26T04:36:35.034Z,54.10
2019-06-26T04:39:07.334Z,54.10
2019-06-26T04:41:36.926Z,54.20
2019-06-26T04:44:06.550Z,54.20
2019-06-26T04:46:36.253Z,54.10
2019-06-26T04:49:05.890Z,54.10
2019-06-26T04:51:35.569Z,54.10
2019-06-26T04:54:05.174Z,54.10
2019-06-26T04:56:34.763Z,54.10
2019-06-26T04:59:04.442Z,54.10
2019-06-26T05:01:34.022Z,54.10
2019-06-26T05:04:03.629Z,54.20
2019-06-26T05:06:33.277Z,54.20
2019-06-26T05:09:05.757Z,54.10
2019-06-26T05:11:35.483Z,54.20
2019-06-26T05:14:05.039Z,54.10
2019-06-26T05:16:36.247Z,54.10
2019-06-26T05:19:05.795Z,54.10
2019-06-26T05:21:35.341Z,54.10
2019-06-26T05:24:05.903Z,54.10
2019-06-26T05:26:35.554Z,54.00
2019-06-26T05:29:06.869Z,54.10
2019-06-26T05:31:36.431Z,54.00
2019-06-26T05:34:10.703Z,54.10
2019-06-26T05:36:38.310Z,54.10
2019-06-26T05:39:07.997Z,54.10
2019-06-26T05:41:37.725Z,54.00
2019-06-26T05:44:08.148Z,54.10
2019-06-26T05:46:37.696Z,54.20
2019-06-26T05:49:07.937Z,54.10
2019-06-26T05:51:38.645Z,54.10
2019-06-26T05:54:08.299Z,54.10
2019-06-26T05:56:37.926Z,54.00
2019-06-26T05:59:07.481Z,54.00
2019-06-26T06:01:37.103Z,54.70
2019-06-26T06:04:06.727Z,54.00
2019-06-26T06:06:42.024Z,54.00
2019-06-26T06:09:09.834Z,54.00
2019-06-26T06:11:39.453Z,54.00
2019-06-26T06:14:09.040Z,54.10
2019-06-26T06:16:47.265Z,54.00
2019-06-26T06:19:09.991Z,53.90
2019-06-26T06:21:39.553Z,54.00
2019-06-26T06:24:09.182Z,53.90
2019-06-26T06:26:38.750Z,53.90
2019-06-26T06:29:08.327Z,54.00
2019-06-26T06:31:37.941Z,54.70
2019-06-26T06:34:08.909Z,54.00
2019-06-26T06:36:38.553Z,53.90
2019-06-26T06:39:08.128Z,53.90
2019-06-26T06:41:37.682Z,53.90
2019-06-26T06:44:07.387Z,53.80
2019-06-26T06:46:37.039Z,53.90
2019-06-26T06:49:06.613Z,53.90
2019-06-26T06:51:36.321Z,53.90
2019-06-26T06:54:07.333Z,53.90
2019-06-26T06:56:37.000Z,53.90
2019-06-26T06:59:06.672Z,53.90
2019-06-26T07:01:36.317Z,54.30
2019-06-26T07:04:08.801Z,53.90
2019-06-26T07:06:38.960Z,53.90
2019-06-26T07:09:08.533Z,53.90
2019-06-26T07:11:38.109Z,53.90
2019-06-26T07:14:07.675Z,54.00
2019-06-26T07:16:38.330Z,53.90
2019-06-26T07:19:07.961Z,53.90
2019-06-26T07:21:37.566Z,54.00
2019-06-26T07:24:07.109Z,53.90
2019-06-26T07:26:36.729Z,53.90
2019-06-26T07:29:06.969Z,53.90
2019-06-26T07:31:38.547Z,53.90
2019-06-26T07:34:07.869Z,53.80
2019-06-26T07:36:37.467Z,53.80
2019-06-26T07:39:08.461Z,53.80
2019-06-26T07:41:39.059Z,53.80
2019-06-26T07:44:08.689Z,53.80
2019-06-26T07:46:39.337Z,53.80
2019-06-26T07:49:08.931Z,53.90
2019-06-26T07:51:38.532Z,53.80
2019-06-26T07:54:09.786Z,53.90
2019-06-26T07:56:39.332Z,53.80
2019-06-26T07:59:08.968Z,53.80
2019-06-26T08:01:38.545Z,54.30
2019-06-26T08:04:09.690Z,53.80
2019-06-26T08:06:40.139Z,53.80
2019-06-26T08:09:10.718Z,53.80
2019-06-26T08:11:41.012Z,53.80
2019-06-26T08:14:11.661Z,53.80
2019-06-26T08:16:41.363Z,53.70
2019-06-26T08:19:10.942Z,53.80
2019-06-26T08:21:40.560Z,53.80
2019-06-26T08:24:10.177Z,53.70
2019-06-26T08:26:39.737Z,53.70
2019-06-26T08:29:09.333Z,53.80
2019-06-26T08:31:38.947Z,53.70
2019-06-26T08:34:08.581Z,53.60
2019-06-26T08:36:38.250Z,53.80
2019-06-26T08:39:08.794Z,53.80
2019-06-26T08:41:38.361Z,53.80
2019-06-26T08:44:07.937Z,53.70
2019-06-26T08:46:39.046Z,53.70
2019-06-26T08:49:24.365Z,53.70
2019-06-26T08:51:39.893Z,53.70
2019-06-26T08:54:09.487Z,53.70
2019-06-26T08:56:39.064Z,53.70
2019-06-26T08:59:08.757Z,53.60
2019-06-26T09:01:38.393Z,53.70
2019-06-26T09:04:08.060Z,53.70
2019-06-26T09:06:37.659Z,53.60
2019-06-26T09:09:07.840Z,53.50
2019-06-26T09:11:37.415Z,53.60
2019-06-26T09:14:08.513Z,53.60
2019-06-26T09:16:38.101Z,53.50
2019-06-26T09:19:07.629Z,53.50
2019-06-26T09:21:37.199Z,53.50
2019-06-26T09:24:06.788Z,53.60
2019-06-26T09:26:36.429Z,53.50
2019-06-26T09:29:06.005Z,53.70
2019-06-26T09:31:35.547Z,53.60
2019-06-26T09:34:05.167Z,53.60
2019-06-26T09:36:34.774Z,53.60
2019-06-26T09:39:05.757Z,53.50
2019-06-26T09:41:35.327Z,53.40
2019-06-26T09:44:05.068Z,53.40
2019-06-26T09:46:34.706Z,53.40
2019-06-26T09:49:04.330Z,53.40
2019-06-26T09:51:33.918Z,53.20
2019-06-26T09:54:03.596Z,53.40
2019-06-26T09:56:36.177Z,53.30
2019-06-26T09:59:05.794Z,53.30
2019-06-26T10:01:37.001Z,53.40
2019-06-26T10:04:06.666Z,53.40
2019-06-26T10:06:36.270Z,53.40
2019-06-26T10:09:07.604Z,53.30
2019-06-26T10:11:38.177Z,53.20
2019-06-26T10:14:07.777Z,53.30
2019-06-26T10:16:37.328Z,53.40
2019-06-26T10:19:10.508Z,53.40
2019-06-26T10:21:38.529Z,53.00
2019-06-26T10:24:08.151Z,53.00
2019-06-26T10:26:40.023Z,53.10
2019-06-26T10:29:10.640Z,53.10
2019-06-26T10:31:40.240Z,53.20
2019-06-26T10:34:10.317Z,53.30
2019-06-26T10:36:41.483Z,53.20
2019-06-26T10:39:11.114Z,53.30
2019-06-26T10:41:40.704Z,53.20
2019-06-26T10:44:10.256Z,53.20
2019-06-26T10:46:41.243Z,53.30
2019-06-26T10:49:25.876Z,53.10
2019-06-26T10:51:43.849Z,53.00
2019-06-26T10:54:13.449Z,53.00
2019-06-26T10:56:43.059Z,53.00
2019-06-26T10:59:13.352Z,53.60
2019-06-26T11:01:42.926Z,53.10
2019-06-26T11:04:12.525Z,53.00
2019-06-26T11:06:42.071Z,53.10
2019-06-26T11:09:11.739Z,53.00
2019-06-26T11:11:41.275Z,52.90
2019-06-26T11:14:10.922Z,52.90
2019-06-26T11:16:40.856Z,52.90
2019-06-26T11:19:10.507Z,52.80
2019-06-26T11:21:41.779Z,52.80
2019-06-26T11:24:11.346Z,52.90
2019-06-26T11:26:40.936Z,52.80
2019-06-26T11:29:10.513Z,52.90
2019-06-26T11:31:41.483Z,52.80
2019-06-26T11:34:11.138Z,52.90
2019-06-26T11:36:40.739Z,52.80
2019-06-26T11:39:10.376Z,53.10
2019-06-26T11:41:39.969Z,52.80
2019-06-26T11:44:09.570Z,52.70
2019-06-26T11:46:40.537Z,52.60
2019-06-26T11:49:10.116Z,52.70
2019-06-26T11:51:39.678Z,52.70
2019-06-26T11:54:09.391Z,52.70
2019-06-26T11:56:39.025Z,52.70
2019-06-26T11:59:08.687Z,52.60
2019-06-26T12:01:38.278Z,52.60
2019-06-26T12:04:07.918Z,53.30
2019-06-26T12:06:37.490Z,52.60
2019-06-26T12:09:08.698Z,53.30
2019-06-26T12:11:38.285Z,52.60
2019-06-26T12:14:07.902Z,52.50
2019-06-26T12:16:37.522Z,52.50
2019-06-26T12:19:07.118Z,52.50
2019-06-26T12:21:36.721Z,52.50
2019-06-26T12:24:06.320Z,52.60
2019-06-26T12:26:35.871Z,52.60
2019-06-26T12:29:05.492Z,52.60
2019-06-26T12:31:35.084Z,52.50
2019-06-26T12:34:04.698Z,52.50
2019-06-26T12:36:34.274Z,52.50
2019-06-26T12:39:05.245Z,52.50
2019-06-26T12:41:34.983Z,52.50
2019-06-26T12:44:06.825Z,52.50
2019-06-26T12:46:36.381Z,52.40
2019-06-26T12:49:06.713Z,52.40
2019-06-26T12:51:37.352Z,52.50
2019-06-26T12:54:07.002Z,52.40
2019-06-26T12:56:36.560Z,52.40
2019-06-26T12:59:07.773Z,52.30
2019-06-26T13:01:37.431Z,52.70
2019-06-26T13:04:07.011Z,52.30
2019-06-26T13:06:36.559Z,52.30
2019-06-26T13:09:07.610Z,52.30
2019-06-26T13:11:37.183Z,52.30
2019-06-26T13:14:07.835Z,52.30
2019-06-26T13:16:37.450Z,52.30
2019-06-26T13:19:07.016Z,52.30
2019-06-26T13:21:36.626Z,52.10
2019-06-26T13:24:06.222Z,52.30
2019-06-26T13:26:35.853Z,52.30
2019-06-26T13:29:09.768Z,52.30
2019-06-26T13:31:39.111Z,52.20
2019-06-26T13:34:08.756Z,52.20
2019-06-26T13:36:38.269Z,52.20
2019-06-26T13:39:08.310Z,52.90
2019-06-26T13:41:38.593Z,52.20
2019-06-26T13:44:08.175Z,52.30
2019-06-26T13:46:37.762Z,52.30
2019-06-26T13:49:07.334Z,52.40
2019-06-26T13:51:36.920Z,52.20
2019-06-26T13:54:08.111Z,52.30
2019-06-26T13:56:37.648Z,52.20
2019-06-26T13:59:07.677Z,52.20
2019-06-26T14:01:37.762Z,52.30
2019-06-26T14:04:07.338Z,52.10
2019-06-26T14:06:37.071Z,52.20
2019-06-26T14:09:07.583Z,52.10
2019-06-26T14:11:37.158Z,52.20
2019-06-26T14:14:06.767Z,52.10
2019-06-26T14:16:36.322Z,52.20
2019-06-26T14:19:05.948Z,52.20
2019-06-26T14:21:35.535Z,52.10
2019-06-26T14:24:05.111Z,52.10
2019-06-26T14:26:34.711Z,52.20
2019-06-26T14:29:17.004Z,52.20
2019-06-26T14:31:35.599Z,52.20
2019-06-26T14:34:05.160Z,52.20
2019-06-26T14:36:34.806Z,52.20
2019-06-26T14:39:06.522Z,52.10
2019-06-26T14:41:39.186Z,52.20
2019-06-26T14:44:08.738Z,52.20
2019-06-26T14:46:38.310Z,52.60
2019-06-26T14:49:08.538Z,51.80
2019-06-26T14:51:46.981Z,51.40
2019-06-26T14:54:11.211Z,51.50
2019-06-26T14:56:40.824Z,52.00
2019-06-26T14:59:14.116Z,51.60
2019-06-26T15:01:43.765Z,51.40
2019-06-26T15:04:15.747Z,51.20
2019-06-26T15:06:45.327Z,50.90
2019-06-26T15:09:14.993Z,51.40
2019-06-26T15:11:56.315Z,51.30
2019-06-26T15:14:26.973Z,50.90
2019-06-26T15:16:56.570Z,51.10
2019-06-26T15:19:26.184Z,51.20
2019-06-26T15:21:58.744Z,51.20
2019-06-26T15:24:27.139Z,51.00
2019-06-26T15:26:59.715Z,50.50
2019-06-26T15:29:29.347Z,50.60
2019-06-26T15:31:59.878Z,50.60
2019-06-26T15:34:29.481Z,50.60
2019-06-26T15:36:59.097Z,50.60
2019-06-26T15:39:28.694Z,50.50
2019-06-26T15:41:58.575Z,50.70
2019-06-26T15:44:30.924Z,50.70
2019-06-26T15:47:03.117Z,50.60
2019-06-26T15:49:35.638Z,50.60
2019-06-26T15:52:15.136Z,50.80
2019-06-26T15:54:39.512Z,51.40
2019-06-26T15:57:09.185Z,50.90
2019-06-26T15:59:38.975Z,50.00
2019-06-26T16:02:08.617Z,50.10
2019-06-26T16:04:38.333Z,50.80
2019-06-26T16:07:07.962Z,50.90
2019-06-26T16:09:37.592Z,51.20
2019-06-26T16:12:07.224Z,51.70
2019-06-26T16:14:36.994Z,52.00
2019-06-26T16:17:12.880Z,52.10
2019-06-26T16:19:43.723Z,52.20
2019-06-26T16:22:13.333Z,52.10
2019-06-26T16:24:45.899Z,51.70
2019-06-26T16:27:15.538Z,52.00
2019-06-26T16:29:48.674Z,52.20
2019-06-26T16:32:18.963Z,52.40
2019-06-26T16:34:48.580Z,52.50
2019-06-26T16:37:18.224Z,52.80
2019-06-26T16:39:47.820Z,52.90
2019-06-26T16:42:17.457Z,52.70
2019-06-26T16:44:47.158Z,52.40
2019-06-26T16:47:16.801Z,52.30
2019-06-26T16:49:46.466Z,52.00
2019-06-26T16:52:16.101Z,51.90
2019-06-26T16:54:47.317Z,51.90
2019-06-26T16:57:16.960Z,51.80
2019-06-26T16:59:46.548Z,51.70
2019-06-26T17:02:16.151Z,51.70
2019-06-26T17:04:45.753Z,51.70
2019-06-26T17:07:15.336Z,51.70
2019-06-26T17:09:46.027Z,51.60
2019-06-26T17:12:15.619Z,51.60
2019-06-26T17:14:46.280Z,51.60
2019-06-26T17:17:16.923Z,51.50
2019-06-26T17:19:46.482Z,51.50
2019-06-26T17:22:16.147Z,51.50
2019-06-26T17:24:45.839Z,51.50
2019-06-26T17:27:15.469Z,51.40
2019-06-26T17:29:46.769Z,51.50
2019-06-26T17:32:16.477Z,51.50
2019-06-26T17:34:46.086Z,51.50
2019-06-26T17:37:15.759Z,51.50
2019-06-26T17:39:45.408Z,51.50
2019-06-26T17:42:15.004Z,51.30
2019-06-26T17:44:45.751Z,51.10
2019-06-26T17:47:15.332Z,50.90
2019-06-26T17:49:45.003Z,50.50
2019-06-26T17:52:14.615Z,50.00
2019-06-26T17:54:45.610Z,49.60
2019-06-26T17:57:15.238Z,49.10
2019-06-26T17:59:44.879Z,48.70
2019-06-26T18:02:14.519Z,48.20
2019-06-26T18:04:44.161Z,47.80
2019-06-26T18:07:14.783Z,47.50
2019-06-26T18:09:44.462Z,47.20
2019-06-26T18:12:14.050Z,47.00
2019-06-26T18:14:43.755Z,46.90
2019-06-26T18:17:21.994Z,46.80
2019-06-26T18:19:44.624Z,46.60
2019-06-26T18:22:14.312Z,46.50
2019-06-26T18:24:43.898Z,46.80
2019-06-26T18:27:13.540Z,47.20
2019-06-26T18:29:43.141Z,47.80
2019-06-26T18:32:12.744Z,48.30
2019-06-26T18:34:46.812Z,48.70
2019-06-26T18:37:15.418Z,48.90
2019-06-26T18:39:45.047Z,49.20
2019-06-26T18:42:14.656Z,49.50
2019-06-26T18:44:45.559Z,49.70
2019-06-26T18:47:15.247Z,49.90
2019-06-26T18:49:45.462Z,50.00
2019-06-26T18:52:15.259Z,50.10
2019-06-26T18:54:44.893Z,50.30
2019-06-26T18:57:14.604Z,50.30
2019-06-26T18:59:44.350Z,50.50
2019-06-26T19:02:14.102Z,50.50
2019-06-26T19:04:44.731Z,50.60
2019-06-26T19:07:14.462Z,50.70
2019-06-26T19:09:45.219Z,50.80
2019-06-26T19:12:14.905Z,50.90
2019-06-26T19:14:46.224Z,51.00
2019-06-26T19:17:16.120Z,51.00
2019-06-26T19:19:45.841Z,51.00
2019-06-26T19:22:15.469Z,51.20
2019-06-26T19:24:45.266Z,51.10
2019-06-26T19:27:15.274Z,51.20
2019-06-26T19:29:44.885Z,51.10
2019-06-26T19:32:15.651Z,51.20
2019-06-26T19:34:45.377Z,51.30
2019-06-26T19:37:15.086Z,51.20
2019-06-26T19:39:44.724Z,51.20
2019-06-26T19:42:14.358Z,51.20
2019-06-26T19:44:44.022Z,51.10
2019-06-26T19:47:14.625Z,51.20
2019-06-26T19:49:44.243Z,51.70
2019-06-26T19:52:14.266Z,51.10
2019-06-26T19:54:43.970Z,51.10
2019-06-26T19:57:14.797Z,51.20
2019-06-26T19:59:44.411Z,51.20
2019-06-26T20:02:15.076Z,51.30
2019-06-26T20:04:48.027Z,51.40
2019-06-26T20:07:16.098Z,51.40
2019-06-26T20:09:45.715Z,51.40
2019-06-26T20:12:15.362Z,51.40
2019-06-26T20:14:45.048Z,51.50
2019-06-26T20:17:14.671Z,51.40
2019-06-26T20:19:44.320Z,51.50
2019-06-26T20:22:14.971Z,51.50
2019-06-26T20:24:45.025Z,51.60
2019-06-26T20:27:15.285Z,51.60
2019-06-26T20:29:44.891Z,51.50
2019-06-26T20:32:15.510Z,51.50
2019-06-26T20:34:45.105Z,51.60
2019-06-26T20:37:14.797Z,51.60
2019-06-26T20:39:44.565Z,51.70
2019-06-26T20:42:15.472Z,51.60
2019-06-26T20:44:46.005Z,51.70
2019-06-26T20:47:16.562Z,51.70
2019-06-26T20:49:53.194Z,51.80
2019-06-26T20:52:17.559Z,51.70
2019-06-26T20:55:00.558Z,51.80
2019-06-26T20:57:18.611Z,51.80
2019-06-26T20:59:48.583Z,51.80
2019-06-26T21:02:18.313Z,51.80
2019-06-26T21:04:47.928Z,51.80
2019-06-26T21:07:17.625Z,51.80
2019-06-26T21:09:47.278Z,51.80
2019-06-26T21:12:16.958Z,52.50
2019-06-26T21:14:46.583Z,51.80
2019-06-26T21:17:16.281Z,51.80
2019-06-26T21:19:46.377Z,51.80
2019-06-26T21:22:16.036Z,51.90
2019-06-26T21:24:45.710Z,51.90
2019-06-26T21:27:15.343Z,52.00
2019-06-26T21:29:45.022Z,52.00
2019-06-26T21:32:14.695Z,51.90
2019-06-26T21:34:45.345Z,52.50
2019-06-26T21:37:14.924Z,52.00
2019-06-26T21:39:44.518Z,51.90
2019-06-26T21:42:14.229Z,51.90
2019-06-26T21:44:43.900Z,52.00
2019-06-26T21:47:13.606Z,51.90
2019-06-26T21:49:46.138Z,52.00
2019-06-26T21:52:15.754Z,52.00
2019-06-26T21:54:46.398Z,52.00
2019-06-26T21:57:34.145Z,52.00
2019-06-26T22:00:23.509Z,51.90
2019-06-26T22:03:11.887Z,52.00
2019-06-26T22:05:43.229Z,52.10
2019-06-26T22:08:14.461Z,52.00
2019-06-26T22:10:45.699Z,52.10
2019-06-26T22:13:16.280Z,52.10
2019-06-26T22:15:45.918Z,52.10
2019-06-26T22:18:17.524Z,52.10
2019-06-26T22:20:49.918Z,52.00
2019-06-26T22:23:19.542Z,52.00
2019-06-26T22:25:51.224Z,52.10
2019-06-26T22:28:20.567Z,52.00
2019-06-26T22:30:51.148Z,52.10
2019-06-26T22:33:21.752Z,52.10
2019-06-26T22:35:51.399Z,52.10
2019-06-26T22:38:22.286Z,52.10
2019-06-26T22:40:52.866Z,52.10
2019-06-26T22:43:22.697Z,52.10
2019-06-26T22:45:52.294Z,52.20
2019-06-26T22:48:22.610Z,52.20
2019-06-26T22:50:52.217Z,52.20
2019-06-26T22:53:22.682Z,52.00
2019-06-26T22:56:07.042Z,52.20
2019-06-26T22:58:25.166Z,52.20
2019-06-26T23:00:55.858Z,52.20
2019-06-26T23:03:25.438Z,52.20
2019-06-26T23:05:55.023Z,51.90
2019-06-26T23:08:24.648Z,52.10
2019-06-26T23:10:54.250Z,52.20
2019-06-26T23:13:26.906Z,52.00
2019-06-26T23:15:56.498Z,52.00
2019-06-26T23:18:26.091Z,52.20
2019-06-26T23:20:55.701Z,52.20
2019-06-26T23:23:25.325Z,52.30
2019-06-26T23:25:59.549Z,52.10
2019-06-26T23:28:30.551Z,52.20
2019-06-26T23:31:00.195Z,52.10
2019-06-26T23:33:29.860Z,52.20
2019-06-26T23:36:02.396Z,52.20
2019-06-26T23:38:32.025Z,52.30
2019-06-26T23:41:02.817Z,52.90
2019-06-26T23:43:33.389Z,52.30
2019-06-26T23:46:02.977Z,52.30
2019-06-26T23:48:32.539Z,52.30
2019-06-26T23:51:02.242Z,52.30
2019-06-26T23:53:32.789Z,52.10
2019-06-26T23:56:02.727Z,52.00
2019-06-26T23:58:32.307Z,52.20
